Time;durP1;ratioP1;P1;durP2;ratioP2;P2;SDS_P1;SDS_P2;PMS_P1;PMS_P2;Temp;Humidity;BMP_temperature;BMP_pressure;BME280_temperature;BME280_humidity;BME280_pressure;Samples;Min_cycle;Max_cycle;Signal;HPM_P1;HPM_P2
2022/08/18 00:00:28;;;;;;;5.47;4.00;;;;;;;24.02;48.14;94495.31;4174994;28;20076;-69
2022/08/18 00:02:30;;;;;;;7.50;3.50;;;;;;;24.06;48.09;94497.25;4172446;28;20143;-69
2022/08/18 00:04:37;;;;;;;5.45;3.58;;;;;;;24.12;47.77;94500.81;4175663;28;20088;-69
2022/08/18 00:06:50;;;;;;;6.75;3.92;;;;;;;24.14;47.92;94504.06;4162161;28;20085;-69
2022/08/18 00:08:52;;;;;;;4.85;3.40;;;;;;;24.17;47.95;94505.41;4171008;28;20048;-68
2022/08/18 00:10:54;;;;;;;7.30;4.03;;;;;;;24.16;48.08;94498.47;4159944;28;20049;-69
2022/08/18 00:12:57;;;;;;;4.88;3.90;;;;;;;24.16;48.18;94496.59;4171467;28;20055;-69
2022/08/18 00:15:04;;;;;;;5.07;4.00;;;;;;;24.20;48.23;94510.25;4159128;28;20566;-68
2022/08/18 00:17:06;;;;;;;7.72;3.88;;;;;;;24.10;48.75;94505.59;4165848;28;20112;-68
2022/08/18 00:19:08;;;;;;;5.68;3.97;;;;;;;24.09;48.60;94510.16;4167146;28;20450;-67
2022/08/18 00:21:10;;;;;;;6.20;3.97;;;;;;;24.08;48.98;94513.88;4160610;28;20072;-69
2022/08/18 00:23:12;;;;;;;6.32;4.38;;;;;;;24.04;48.99;94504.72;4164149;28;20052;-67
2022/08/18 00:25:16;;;;;;;7.93;4.05;;;;;;;24.06;49.28;94515.97;4173909;28;20155;-68
2022/08/18 00:27:20;;;;;;;5.15;4.28;;;;;;;24.06;49.14;94507.97;4150986;28;20431;-70
2022/08/18 00:29:24;;;;;;;5.45;3.78;;;;;;;24.06;49.42;94509.84;4142282;28;20141;-68
2022/08/18 00:31:26;;;;;;;6.13;3.83;;;;;;;23.99;49.09;94514.56;4163780;28;20554;-68
2022/08/18 00:33:28;;;;;;;4.57;3.88;;;;;;;23.96;49.41;94507.00;4175639;28;20053;-68
2022/08/18 00:35:33;;;;;;;6.35;4.13;;;;;;;23.88;49.78;94510.94;4174891;28;20050;-68
2022/08/18 00:37:35;;;;;;;5.38;3.60;;;;;;;23.82;49.41;94506.56;4146031;28;20057;-69
2022/08/18 00:39:37;;;;;;;7.30;4.07;;;;;;;23.76;49.21;94504.88;4172778;28;20049;-69
2022/08/18 00:41:47;;;;;;;5.88;3.88;;;;;;;23.73;49.92;94510.69;4174669;28;20529;-69
2022/08/18 00:43:50;;;;;;;5.65;4.03;;;;;;;23.71;49.33;94513.59;4175730;28;20052;-68
2022/08/18 00:45:52;;;;;;;6.57;4.13;;;;;;;23.65;49.97;94512.72;4175479;28;20179;-68
2022/08/18 00:47:55;;;;;;;7.05;3.92;;;;;;;23.65;49.92;94512.72;4174942;28;20041;-68
2022/08/18 00:49:57;;;;;;;4.85;3.95;;;;;;;23.59;49.83;94516.34;4175538;28;20049;-67
2022/08/18 00:52:00;;;;;;;6.80;3.78;;;;;;;23.57;50.07;94521.13;4171539;28;20199;-66
2022/08/18 00:54:10;;;;;;;8.95;4.38;;;;;;;23.53;50.03;94517.34;4176785;28;20332;-69
2022/08/18 00:56:34;;;;;;;7.95;4.38;;;;;;;23.52;50.07;94521.06;4163480;28;20092;-68
2022/08/18 00:59:03;;;;;;;7.18;4.32;;;;;;;23.42;50.82;94520.91;4183402;28;20041;-67
2022/08/18 01:01:06;;;;;;;5.32;4.25;;;;;;;22.92;51.44;94527.00;4168688;28;20137;-67
2022/08/18 01:03:14;;;;;;;4.95;3.88;;;;;;;22.59;52.55;94528.53;4163496;28;20046;-69
2022/08/18 01:05:31;;;;;;;5.65;4.18;;;;;;;22.42;52.98;94534.63;4137050;28;20053;-68
2022/08/18 01:07:41;;;;;;;7.30;4.10;;;;;;;22.48;52.83;94527.53;4160856;28;20543;-67
2022/08/18 01:09:43;;;;;;;8.40;5.13;;;;;;;22.60;52.69;94525.63;4144685;28;20054;-68
2022/08/18 01:11:45;;;;;;;4.82;4.13;;;;;;;22.76;52.22;94526.72;4184815;28;20435;-69
2022/08/18 01:13:47;;;;;;;10.65;4.63;;;;;;;22.87;52.17;94523.19;4174456;28;20057;-67
2022/08/18 01:15:49;;;;;;;6.85;4.82;;;;;;;22.96;52.49;94522.78;4174557;28;20156;-70
2022/08/18 01:22:49;;;;;;;7.18;4.32;;;;;;;23.10;52.18;94527.63;4154841;28;20358;-69
2022/08/18 01:27:16;;;;;;;7.38;4.82;;;;;;;23.15;52.01;94516.22;4178071;28;20041;-68
2022/08/18 01:29:18;;;;;;;7.82;5.03;;;;;;;23.15;51.97;94516.22;4170135;28;20133;-67
2022/08/18 01:31:51;;;;;;;7.00;4.88;;;;;;;23.16;52.27;94517.81;4167217;28;20211;-68
2022/08/18 01:33:56;;;;;;;7.00;5.22;;;;;;;23.17;52.14;94522.13;4150991;28;20311;-68
2022/08/18 01:36:02;;;;;;;6.65;4.85;;;;;;;23.17;52.03;94521.31;4179023;28;20387;-67
2022/08/18 01:38:04;;;;;;;6.57;4.80;;;;;;;23.14;52.33;94513.78;4159464;28;20147;-69
2022/08/18 01:40:12;;;;;;;8.00;5.22;;;;;;;23.16;52.66;94523.16;4178000;28;20128;-68
2022/08/18 01:42:35;;;;;;;8.38;5.32;;;;;;;23.12;52.58;94524.69;4163197;28;20049;-68
2022/08/18 01:44:40;;;;;;;7.78;5.25;;;;;;;23.13;52.98;94521.00;4174125;28;20076;-67
2022/08/18 01:46:42;;;;;;;9.13;4.75;;;;;;;23.12;52.79;94516.69;4172079;28;20060;-69
2022/08/18 01:48:44;;;;;;;10.40;5.70;;;;;;;23.08;53.14;94505.69;4177100;28;20152;-69
2022/08/18 01:50:48;;;;;;;8.68;4.78;;;;;;;23.07;53.09;94512.06;4174314;28;20053;-67
2022/08/18 01:52:52;;;;;;;8.02;5.35;;;;;;;23.05;53.15;94514.16;4177414;28;20452;-66
2022/08/18 01:54:57;;;;;;;7.38;4.97;;;;;;;23.05;53.11;94513.38;4169668;28;20064;-68
2022/08/18 01:56:59;;;;;;;9.10;5.40;;;;;;;23.06;53.14;94515.00;4165206;28;20139;-68
2022/08/18 01:59:00;;;;;;;9.23;4.90;;;;;;;23.06;52.96;94506.97;4175003;28;20048;-70
2022/08/18 02:01:03;;;;;;;7.45;5.55;;;;;;;23.02;53.10;94509.31;4159125;28;20099;-69
2022/08/18 02:03:07;;;;;;;7.40;5.38;;;;;;;23.03;53.00;94510.94;4153052;28;20057;-68
2022/08/18 02:05:12;;;;;;;6.45;4.88;;;;;;;22.99;53.32;94516.97;4160143;28;20551;-69
2022/08/18 02:07:14;;;;;;;6.85;5.07;;;;;;;22.80;53.43;94522.53;4170487;28;20061;-68
2022/08/18 02:09:16;;;;;;;10.50;5.63;;;;;;;22.64;53.84;94528.63;4160006;28;20049;-67
2022/08/18 02:11:24;;;;;;;13.30;5.45;;;;;;;22.49;54.14;94521.94;4176697;28;20136;-69
2022/08/18 02:13:27;;;;;;;10.48;5.00;;;;;;;22.46;54.76;94518.94;4177282;28;20048;-70
2022/08/18 02:15:29;;;;;;;7.78;5.32;;;;;;;22.55;54.53;94530.06;4177575;28;20503;-70
2022/08/18 02:17:37;;;;;;;8.43;5.90;;;;;;;22.54;53.57;94523.88;4177474;28;20049;-68
2022/08/18 02:19:44;;;;;;;10.63;5.65;;;;;;;22.54;54.00;94520.41;4176151;28;20115;-69
2022/08/18 02:21:46;;;;;;;8.25;5.30;;;;;;;22.58;54.22;94526.91;4176880;28;20098;-70
2022/08/18 02:23:48;;;;;;;12.43;5.53;;;;;;;22.44;54.59;94531.72;4173337;28;20046;-68
2022/08/18 02:25:54;;;;;;;8.55;5.70;;;;;;;22.32;55.08;94521.06;4171369;28;20465;-68
2022/08/18 02:27:57;;;;;;;9.00;5.47;;;;;;;22.16;55.49;94516.44;4174384;28;20111;-68
2022/08/18 02:29:59;;;;;;;10.52;5.65;;;;;;;22.12;55.68;94517.97;4163323;28;20053;-67
2022/08/18 02:32:01;;;;;;;11.52;6.15;;;;;;;22.12;55.55;94518.78;4177337;28;20136;-69
2022/08/18 02:34:03;;;;;;;9.95;5.70;;;;;;;22.11;55.44;94514.47;4168689;28;20065;-69
2022/08/18 02:36:06;;;;;;;13.65;5.57;;;;;;;22.12;55.52;94504.63;4161233;28;20054;-68
2022/08/18 02:38:08;;;;;;;10.90;5.63;;;;;;;22.15;55.15;94517.47;4163221;28;20551;-69
2022/08/18 02:40:14;;;;;;;9.73;5.53;;;;;;;22.09;55.21;94517.38;4150303;28;20414;-68
2022/08/18 02:42:17;;;;;;;10.70;5.35;;;;;;;22.02;55.51;94514.00;4176437;28;20077;-69
2022/08/18 02:44:22;;;;;;;12.45;5.95;;;;;;;22.03;55.62;94517.53;4173817;28;20466;-67
2022/08/18 02:46:24;;;;;;;7.55;5.18;;;;;;;22.04;55.69;94513.78;4161591;28;20536;-68
2022/08/18 02:48:33;;;;;;;12.13;5.78;;;;;;;22.09;55.54;94524.56;4172745;28;20072;-68
2022/08/18 02:50:43;;;;;;;;;;;;;;;22.15;55.24;94522.81;4145089;28;20050;-68
2022/08/18 02:52:46;;;;;;;12.27;6.25;;;;;;;22.20;55.17;94522.91;4160169;28;20214;-68
2022/08/18 02:54:48;;;;;;;9.23;6.13;;;;;;;22.25;54.98;94523.88;4169095;28;20147;-67
2022/08/18 02:56:51;;;;;;;8.82;6.00;;;;;;;22.26;55.26;94525.50;4163674;28;20127;-67
2022/08/18 02:59:04;;;;;;;11.18;6.75;;;;;;;22.31;55.39;94526.66;4164548;28;20148;-68
2022/08/18 03:01:06;;;;;;;9.98;6.13;;;;;;;22.22;55.34;94521.69;4150633;28;20136;-68
2022/08/18 03:03:08;;;;;;;11.85;6.90;;;;;;;22.18;55.25;94525.84;4170949;28;20061;-69
2022/08/18 03:05:10;;;;;;;10.57;5.90;;;;;;;22.10;55.29;94520.84;4160678;28;20051;-68
2022/08/18 03:07:16;;;;;;;11.88;6.35;;;;;;;22.05;55.31;94518.09;4165462;28;20064;-68
2022/08/18 03:09:18;;;;;;;13.73;6.20;;;;;;;21.98;55.93;94518.19;4175779;28;20451;-68
2022/08/18 03:11:23;;;;;;;7.72;6.10;;;;;;;21.98;55.82;94520.06;4173947;28;20068;-69
2022/08/18 03:13:25;;;;;;;16.52;6.75;;;;;;;21.92;56.16;94519.16;4174254;28;20112;-68
2022/08/18 03:15:27;;;;;;;9.85;6.90;;;;;;;21.99;55.93;94524.38;4166217;28;20479;-68
2022/08/18 03:17:30;;;;;;;11.32;6.97;;;;;;;21.94;56.02;94522.41;4175520;28;20051;-68
2022/08/18 03:19:32;;;;;;;8.70;6.68;;;;;;;21.82;56.52;94525.06;4175478;28;20061;-67
2022/08/18 03:21:36;;;;;;;11.73;7.30;;;;;;;21.81;56.84;94527.94;4172601;28;20053;-66
2022/08/18 03:23:41;;;;;;;11.75;7.07;;;;;;;21.84;56.39;94530.19;4142754;28;20281;-67
2022/08/18 03:25:47;;;;;;;10.77;6.72;;;;;;;21.87;56.52;94527.84;4163024;28;20053;-68
2022/08/18 03:27:49;;;;;;;12.23;7.38;;;;;;;21.94;56.54;94529.56;4170599;28;20116;-67
2022/08/18 03:29:52;;;;;;;11.35;6.55;;;;;;;22.01;56.31;94536.41;4159954;28;20053;-67
2022/08/18 03:31:54;;;;;;;11.00;7.30;;;;;;;22.06;56.33;94536.50;4163801;28;20049;-67
2022/08/18 03:33:58;;;;;;;11.70;7.38;;;;;;;22.08;56.26;94534.41;4160073;28;20049;-67
2022/08/18 03:36:06;;;;;;;12.40;7.18;;;;;;;22.08;56.20;94531.75;4171751;28;20053;-67
2022/08/18 03:38:08;;;;;;;11.68;7.57;;;;;;;22.03;56.37;94525.53;4162359;28;20088;-68
2022/08/18 03:40:10;;;;;;;10.20;7.68;;;;;;;21.99;56.32;94530.50;4152669;28;20137;-67
2022/08/18 03:42:13;;;;;;;11.82;7.13;;;;;;;21.94;56.45;94535.75;4171937;28;20076;-68
2022/08/18 03:44:14;;;;;;;16.40;8.25;;;;;;;21.88;56.78;94534.81;4172986;28;20049;-68
2022/08/18 03:46:18;;;;;;;15.55;7.75;;;;;;;21.77;57.17;94521.47;4159683;28;20307;-68
2022/08/18 03:48:20;;;;;;;;;;;;;;;21.75;57.50;94531.56;4170236;28;20055;-69
2022/08/18 03:50:25;;;;;;;15.45;7.88;;;;;;;21.79;57.57;94528.22;4157944;28;20301;-65
2022/08/18 03:52:27;;;;;;;17.90;6.90;;;;;;;21.88;57.42;94536.66;4162001;28;20071;-68
2022/08/18 03:54:32;;;;;;;10.70;7.13;;;;;;;21.94;57.32;94533.06;4175952;28;20423;-67
2022/08/18 03:56:37;;;;;;;9.57;6.55;;;;;;;21.99;57.06;94530.50;4175383;28;20080;-67
2022/08/18 03:58:40;;;;;;;10.15;6.30;;;;;;;22.03;56.30;94541.53;4161989;28;20060;-67
2022/08/18 04:00:42;;;;;;;8.77;6.47;;;;;;;21.91;56.59;94533.53;4165017;28;20132;-69
2022/08/18 04:02:43;;;;;;;11.30;6.57;;;;;;;21.81;56.68;94539.47;4169165;28;20045;-68
2022/08/18 04:04:45;;;;;;;11.82;6.50;;;;;;;21.56;57.39;94539.69;4175781;28;20439;-66
2022/08/18 04:06:55;;;;;;;8.38;6.05;;;;;;;21.28;58.41;94538.47;4174207;28;20048;-68
2022/08/18 04:09:00;;;;;;;9.80;6.18;;;;;;;21.40;58.16;94543.81;4176104;28;20139;-69
2022/08/18 04:11:02;;;;;;;10.45;6.80;;;;;;;21.50;58.17;94539.78;4174756;28;20384;-69
2022/08/18 04:13:04;;;;;;;10.68;6.88;;;;;;;21.64;58.01;94544.66;4175278;28;20055;-68
2022/08/18 04:15:06;;;;;;;17.60;6.60;;;;;;;21.76;57.56;94550.00;4163035;28;20205;-68
2022/08/18 04:17:09;;;;;;;13.00;6.72;;;;;;;21.76;57.55;94551.84;4175286;28;20056;-69
2022/08/18 04:19:12;;;;;;;14.10;6.93;;;;;;;21.82;57.44;94556.25;4158167;28;20064;-67
2022/08/18 04:21:14;;;;;;;11.45;6.53;;;;;;;21.80;57.32;94558.34;4158005;28;20175;-68
2022/08/18 04:23:16;;;;;;;10.85;7.13;;;;;;;21.89;57.59;94562.28;4174915;28;20132;-66
2022/08/18 04:25:18;;;;;;;10.15;6.80;;;;;;;21.94;57.23;94559.75;4154351;28;20149;-70
2022/08/18 04:27:23;;;;;;;11.18;6.60;;;;;;;22.07;57.13;94569.34;4163192;28;20056;-68
2022/08/18 04:29:24;;;;;;;13.70;7.28;;;;;;;22.14;57.18;94564.69;4172183;28;20476;-68
2022/08/18 04:31:28;;;;;;;12.07;7.45;;;;;;;22.20;57.03;94573.59;4175252;28;20061;-69
2022/08/18 04:33:30;;;;;;;13.68;6.93;;;;;;;22.23;56.89;94568.66;4175940;28;20045;-68
2022/08/18 04:35:32;;;;;;;12.00;7.43;;;;;;;22.24;56.88;94575.63;4176182;28;20126;-69
2022/08/18 04:37:36;;;;;;;9.98;7.53;;;;;;;22.28;56.72;94575.94;4174191;28;20061;-69
2022/08/18 04:39:42;;;;;;;11.77;7.57;;;;;;;22.33;56.21;94577.91;4175148;28;20072;-69
2022/08/18 04:41:44;;;;;;;8.82;7.15;;;;;;;22.36;56.34;94577.47;4170850;28;20053;-69
2022/08/18 04:43:48;;;;;;;10.93;7.05;;;;;;;22.43;56.33;94575.47;4166152;28;20085;-68
2022/08/18 04:45:50;;;;;;;;;;;;;;;22.39;56.04;94574.31;4170023;28;20128;-70
2022/08/18 04:47:52;;;;;;;21.67;8.05;;;;;;;22.21;56.76;94569.91;4165554;28;20358;-68
2022/08/18 04:49:54;;;;;;;12.27;8.77;;;;;;;22.11;56.90;94578.50;4168513;28;20046;-69
2022/08/18 04:54:39;;;;;;;13.88;7.65;;;;;;;21.94;57.53;94578.41;4178265;28;20049;-67
2022/08/18 04:56:40;;;;;;;;;;;;;;;21.91;57.19;94586.84;4178657;28;20044;-69
2022/08/18 04:58:43;;;;;;;13.20;8.30;;;;;;;21.88;57.65;94579.34;4178158;28;20035;-69
2022/08/18 05:00:55;;;;;;;14.10;8.88;;;;;;;21.81;58.08;94586.63;4178437;28;20057;-69
2022/08/18 05:02:57;;;;;;;15.50;8.63;;;;;;;21.67;58.68;94584.19;4178339;28;20053;-68
2022/08/18 05:05:03;;;;;;;22.25;8.82;;;;;;;21.48;59.12;94587.97;4177106;28;20084;-69
2022/08/18 05:07:12;;;;;;;20.42;9.02;;;;;;;21.56;58.89;94578.84;4177377;28;20052;-67
2022/08/18 05:09:15;;;;;;;12.70;8.57;;;;;;;21.63;58.47;94576.88;4160743;28;20091;-68
2022/08/18 05:11:27;;;;;;;9.70;8.02;;;;;;;21.78;57.89;94579.91;4177135;28;20059;-69
2022/08/18 05:13:29;;;;;;;12.80;8.52;;;;;;;21.88;57.75;94572.13;4178725;28;20048;-68
2022/08/18 05:15:32;;;;;;;18.10;9.05;;;;;;;21.98;57.24;94571.53;4177661;28;20471;-66
2022/08/18 05:17:55;;;;;;;11.40;7.88;;;;;;;22.17;56.98;94584.75;4174009;28;20095;-68
2022/08/18 05:19:59;;;;;;;18.50;8.38;;;;;;;22.31;56.18;94588.84;4173932;28;20052;-68
2022/08/18 05:22:03;;;;;;;21.20;9.02;;;;;;;22.40;56.01;94590.09;4177265;28;20060;-70
2022/08/18 05:24:08;;;;;;;19.08;10.50;;;;;;;22.49;56.00;94591.34;4177614;28;20045;-68
2022/08/18 05:26:12;;;;;;;20.10;9.88;;;;;;;22.47;55.99;94589.94;4176587;28;20049;-68
2022/08/18 05:28:15;;;;;;;13.73;8.93;;;;;;;22.51;55.82;94588.44;4173171;28;20217;-66
2022/08/18 05:30:16;;;;;;;13.63;8.80;;;;;;;22.47;56.09;94592.63;4173183;28;20549;-67
2022/08/18 05:32:21;;;;;;;28.80;9.25;;;;;;;22.55;56.07;94592.25;4169792;28;20049;-68
2022/08/18 05:34:48;;;;;;;16.35;10.18;;;;;;;22.69;56.06;94590.13;4166090;28;20103;-68
2022/08/18 05:37:02;;;;;;;22.48;8.73;;;;;;;22.65;55.43;94596.97;4148943;28;20049;-67
2022/08/18 05:39:17;;;;;;;20.35;10.27;;;;;;;22.67;56.05;94595.72;4163388;28;20057;-68
2022/08/18 05:41:30;;;;;;;13.45;9.98;;;;;;;22.64;55.85;94598.84;4167994;28;20056;-67
2022/08/18 05:43:32;;;;;;;16.85;9.63;;;;;;;22.63;55.91;94599.09;4154435;28;20168;-68
2022/08/18 05:45:38;;;;;;;15.43;8.25;;;;;;;22.67;56.29;94597.56;4158239;28;20172;-66
2022/08/18 05:47:40;;;;;;;20.90;8.77;;;;;;;22.69;55.88;94592.78;4151556;28;20534;-68
2022/08/18 05:49:43;;;;;;;15.20;9.20;;;;;;;22.85;55.48;94596.59;4174312;28;20071;-69
2022/08/18 05:51:51;;;;;;;14.13;8.98;;;;;;;23.04;55.71;94595.38;4165661;28;20057;-68
2022/08/18 05:56:47;;;;;;;17.25;9.90;;;;;;;23.17;55.22;94598.81;4177141;28;20071;-68
2022/08/18 05:58:54;;;;;;;15.65;9.15;;;;;;;23.02;54.84;94597.47;4159951;28;20062;-67
2022/08/18 06:01:01;;;;;;;19.80;8.88;;;;;;;22.91;55.57;94598.31;4154190;28;20129;-70
2022/08/18 06:03:15;;;;;;;21.80;8.77;;;;;;;23.07;55.40;94602.09;4149586;28;20489;-71
2022/08/18 06:05:27;;;;;;;13.60;9.05;;;;;;;23.22;54.31;94588.22;4161661;28;20308;-68
2022/08/18 06:07:52;;;;;;;16.02;8.52;;;;;;;23.19;54.12;94594.00;4167211;28;20094;-69
2022/08/18 06:09:54;;;;;;;17.90;8.05;;;;;;;23.13;54.34;94587.78;4161913;28;20155;-68
2022/08/18 06:12:12;;;;;;;50.78;12.05;;;;;;;23.24;54.03;94594.94;4161328;28;20521;-69
2022/08/18 06:14:14;;;;;;;14.55;8.65;;;;;;;23.42;54.02;94601.09;4153711;28;20042;-67
2022/08/18 06:16:19;;;;;;;11.52;8.60;;;;;;;23.60;53.56;94602.75;4157496;28;20061;-67
2022/08/18 06:18:46;;;;;;;9.93;8.18;;;;;;;23.82;52.93;94594.84;4176695;28;20045;-70
2022/08/18 06:21:14;;;;;;;11.27;8.82;;;;;;;23.98;52.57;94591.31;4159166;28;20042;-73
2022/08/18 06:23:30;;;;;;;14.20;8.48;;;;;;;24.12;51.89;94595.28;4135047;28;20046;-69
2022/08/18 06:25:44;;;;;;;11.65;8.10;;;;;;;24.12;51.83;94597.97;4165862;28;20061;-69
2022/08/18 06:28:01;;;;;;;;;;;;;;;24.22;51.78;94589.28;4153388;28;20129;-67
2022/08/18 06:30:10;;;;;;;12.55;7.88;;;;;;;24.26;51.51;94594.94;4170324;28;20272;-67
2022/08/18 06:32:27;;;;;;;23.08;7.97;;;;;;;24.24;51.53;94591.69;4172651;28;20436;-68
2022/08/18 06:34:47;;;;;;;15.07;7.88;;;;;;;24.27;51.30;94593.88;4166745;28;20045;-69
2022/08/18 06:37:25;;;;;;;13.18;8.02;;;;;;;24.39;51.22;94597.25;4147188;28;20099;-69
2022/08/18 06:39:35;;;;;;;10.23;7.68;;;;;;;24.52;50.67;94604.13;4172616;28;20291;-68
2022/08/18 06:41:49;;;;;;;13.68;7.93;;;;;;;24.57;50.75;94598.06;4176241;28;20056;-67
2022/08/18 06:44:00;;;;;;;11.43;7.60;;;;;;;24.67;50.52;94599.00;4172174;28;20057;-70
2022/08/18 06:46:13;;;;;;;14.50;7.72;;;;;;;24.59;51.01;94593.25;4159514;28;20111;-69
2022/08/18 06:48:21;;;;;;;12.48;7.93;;;;;;;24.61;50.88;94586.59;4159638;28;20607;-69
2022/08/18 06:50:31;;;;;;;12.18;6.57;;;;;;;24.66;50.39;94589.31;4152702;28;20318;-68
2022/08/18 06:52:35;;;;;;;19.90;7.15;;;;;;;24.88;49.67;94589.28;4157171;28;20129;-68
2022/08/18 06:54:42;;;;;;;13.25;6.68;;;;;;;25.12;49.62;94583.66;4134601;28;20061;-67
2022/08/18 06:56:53;;;;;;;8.32;6.70;;;;;;;25.31;49.09;94582.25;4137660;28;20051;-67
2022/08/18 06:59:12;;;;;;;13.02;6.82;;;;;;;25.51;48.87;94578.97;4155873;28;20080;-67
2022/08/18 07:01:16;;;;;;;13.45;7.05;;;;;;;25.71;48.57;94574.84;4156980;28;20366;-69
2022/08/18 07:03:19;;;;;;;;;;;;;;;25.84;48.31;94573.59;4146266;28;20054;-69
2022/08/18 07:05:25;;;;;;;16.10;7.18;;;;;;;25.90;48.06;94573.41;4151401;28;19920;-67
2022/08/18 07:07:38;;;;;;;16.88;8.43;;;;;;;25.95;47.94;94572.63;4150132;28;20049;-67
2022/08/18 07:09:42;;;;;;;14.15;6.80;;;;;;;25.99;47.69;94570.25;4152704;28;20049;-69
2022/08/18 07:12:06;;;;;;;13.35;6.57;;;;;;;26.03;47.46;94569.47;4155409;28;20080;-68
2022/08/18 07:14:21;;;;;;;12.20;7.03;;;;;;;26.05;47.98;94563.81;4157100;28;20153;-69
2022/08/18 07:16:26;;;;;;;10.27;6.93;;;;;;;26.25;47.70;94563.94;4148176;28;20061;-67
2022/08/18 07:18:48;;;;;;;16.85;6.85;;;;;;;26.45;47.29;94567.78;4149121;28;20398;-69
2022/08/18 07:20:59;;;;;;;13.73;6.30;;;;;;;26.55;46.83;94560.59;4153940;28;20053;-70
2022/08/18 07:23:04;;;;;;;11.38;6.40;;;;;;;26.68;45.95;94559.31;4142518;28;20062;-70
2022/08/18 07:25:20;;;;;;;14.23;6.38;;;;;;;26.50;46.38;94560.59;4146954;28;20215;-71
2022/08/18 07:27:38;;;;;;;;;;;;;;;26.25;46.73;94563.13;4161312;28;20045;-68
2022/08/18 07:30:04;;;;;;;8.50;5.50;;;;;;;26.30;47.17;94560.47;4161485;28;19935;-76
2022/08/18 07:32:16;;;;;;;7.53;5.20;;;;;;;26.40;46.67;94565.91;4148196;28;20091;-78
2022/08/18 07:34:26;;;;;;;9.07;6.18;;;;;;;26.46;46.38;94566.75;4159398;28;20042;-68
2022/08/18 07:36:33;;;;;;;11.40;6.88;;;;;;;26.35;46.00;94566.69;4160002;28;20138;-69
2022/08/18 07:38:41;;;;;;;18.15;6.88;;;;;;;26.63;46.23;94566.56;4156532;28;20049;-69
2022/08/18 07:41:01;;;;;;;13.02;5.93;;;;;;;26.74;45.82;94565.53;4155167;28;20157;-70
2022/08/18 07:43:19;;;;;;;7.60;5.70;;;;;;;26.89;45.74;94560.22;4155834;28;20169;-69
2022/08/18 07:45:31;;;;;;;9.30;5.55;;;;;;;27.09;45.22;94556.75;4146718;28;20485;-71
2022/08/18 07:47:41;;;;;;;8.27;5.78;;;;;;;27.16;44.47;94551.13;4171648;28;20067;-71
2022/08/18 07:49:45;;;;;;;8.43;5.03;;;;;;;27.31;44.94;94561.91;4143979;28;20385;-69
2022/08/18 07:52:16;;;;;;;11.05;6.15;;;;;;;27.53;44.23;94560.88;4160978;28;20056;-71
2022/08/18 07:54:52;;;;;;;11.57;5.63;;;;;;;27.42;44.24;94559.25;4167808;28;20110;-69
2022/08/18 07:57:15;;;;;;;9.95;5.80;;;;;;;27.57;43.54;94562.75;4162087;28;20058;-71
2022/08/18 07:59:26;;;;;;;10.25;5.70;;;;;;;27.63;43.82;94566.25;4162701;28;20178;-71
2022/08/18 08:01:38;;;;;;;9.43;6.15;;;;;;;27.71;43.52;94557.66;4149209;28;20137;-71
2022/08/18 08:03:50;;;;;;;12.20;6.38;;;;;;;27.88;43.80;94564.69;4169034;28;20061;-71
2022/08/18 08:05:55;;;;;;;14.25;6.03;;;;;;;28.09;42.93;94563.56;4156702;28;20056;-70
2022/08/18 08:08:05;;;;;;;10.55;5.30;;;;;;;28.18;41.71;94561.91;4161973;28;20361;-68
2022/08/18 08:10:14;;;;;;;7.47;5.22;;;;;;;28.23;42.10;94563.00;4153181;28;20053;-71
2022/08/18 08:12:31;;;;;;;10.82;5.70;;;;;;;28.33;41.84;94562.94;4172098;28;20508;-68
2022/08/18 08:14:40;;;;;;;9.93;5.00;;;;;;;28.33;41.52;94566.47;4154324;28;20049;-69
2022/08/18 08:16:47;;;;;;;7.88;5.03;;;;;;;28.30;41.26;94555.41;4175259;28;20100;-70
2022/08/18 08:19:15;;;;;;;8.80;5.03;;;;;;;28.33;41.72;94563.78;4175612;28;20202;-69
2022/08/18 08:21:20;;;;;;;9.85;5.25;;;;;;;28.34;41.71;94553.78;4136388;28;20077;-69
2022/08/18 08:23:34;;;;;;;6.63;4.93;;;;;;;28.43;41.44;94546.75;4154455;28;20425;-70
2022/08/18 08:25:59;;;;;;;7.82;4.30;;;;;;;28.30;41.58;94550.03;4169217;28;20049;-71
2022/08/18 08:28:19;;;;;;;10.95;5.38;;;;;;;28.53;41.27;94549.44;4160551;28;20045;-71
2022/08/18 08:30:23;;;;;;;7.93;5.30;;;;;;;28.74;41.04;94562.84;4147208;28;20384;-70
2022/08/18 08:33:01;;;;;;;9.48;5.10;;;;;;;28.77;40.30;94554.19;4175580;28;20056;-71
2022/08/18 08:35:36;;;;;;;7.20;4.72;;;;;;;28.97;39.79;94554.13;4144760;28;20530;-69
2022/08/18 08:37:54;;;;;;;9.63;4.38;;;;;;;29.06;38.64;94548.94;4151027;28;20054;-72
2022/08/18 08:40:07;;;;;;;8.25;4.57;;;;;;;29.21;38.83;94539.94;4163684;28;20049;-69
2022/08/18 08:42:18;;;;;;;5.45;4.00;;;;;;;29.21;37.17;94542.66;4157415;28;20107;-68
2022/08/18 08:44:39;;;;;;;7.20;3.97;;;;;;;29.20;37.48;94544.53;4166211;28;20051;-69
2022/08/18 08:47:22;;;;;;;5.82;4.00;;;;;;;29.13;36.91;94559.44;4150290;28;20062;-68
2022/08/18 08:49:34;;;;;;;9.93;3.92;;;;;;;29.10;37.38;94551.91;4144236;28;20113;-69
2022/08/18 08:51:56;;;;;;;7.40;3.97;;;;;;;29.19;36.53;94547.53;4150497;28;20099;-71
2022/08/18 08:54:06;;;;;;;14.27;5.00;;;;;;;29.19;36.89;94545.66;4146731;28;20136;-70
2022/08/18 08:56:15;;;;;;;6.60;4.38;;;;;;;29.43;37.06;94549.50;4153530;28;20564;-71
2022/08/18 08:58:24;;;;;;;8.02;3.75;;;;;;;29.59;35.89;94548.31;4148604;28;20067;-68
2022/08/18 09:00:28;;;;;;;5.75;3.88;;;;;;;29.70;36.07;94543.69;4161543;28;20146;-68
2022/08/18 09:02:45;;;;;;;6.60;3.97;;;;;;;29.66;36.04;94550.69;4166176;28;20056;-70
2022/08/18 09:05:05;;;;;;;9.10;4.47;;;;;;;29.67;35.11;94545.03;4165353;28;20079;-70
2022/08/18 09:07:42;;;;;;;7.53;4.45;;;;;;;29.87;35.26;94537.84;4161429;28;20362;-70
2022/08/18 09:10:04;;;;;;;5.00;3.85;;;;;;;30.00;34.30;94539.88;4164651;28;20152;-69
2022/08/18 09:12:17;;;;;;;7.18;4.07;;;;;;;30.11;34.09;94538.69;4164368;28;20049;-70
2022/08/18 09:14:31;;;;;;;7.45;3.45;;;;;;;30.11;34.66;94532.50;4154705;28;20150;-72
2022/08/18 09:17:10;;;;;;;5.85;3.88;;;;;;;30.19;34.43;94529.97;4171717;28;20064;-67
2022/08/18 09:19:29;;;;;;;5.65;3.67;;;;;;;30.38;34.34;94526.56;4159809;28;20207;-68
2022/08/18 09:21:34;;;;;;;4.18;3.67;;;;;;;30.49;34.24;94522.63;4155685;28;20049;-70
2022/08/18 09:23:49;;;;;;;4.22;3.30;;;;;;;30.54;33.57;94525.25;4165704;28;20050;-70
2022/08/18 09:25:54;;;;;;;6.95;3.88;;;;;;;30.02;33.96;94526.91;4146499;28;20056;-69
2022/08/18 09:28:18;;;;;;;5.47;4.30;;;;;;;29.87;34.43;94518.97;4147691;28;20552;-72
2022/08/18 09:30:39;;;;;;;;;;;;;;;30.03;34.37;94525.81;4170172;28;20071;-68
2022/08/18 09:32:54;;;;;;;4.93;4.25;;;;;;;30.17;34.13;94515.94;4149989;28;19928;-70
2022/08/18 09:35:08;;;;;;;;;;;;;;;30.14;34.21;94515.72;4175515;28;20060;-69
2022/08/18 09:37:20;;;;;;;8.98;4.80;;;;;;;30.33;33.64;94507.69;4166195;28;19974;-69
2022/08/18 09:42:26;;;;;;;6.20;3.95;;;;;;;30.69;32.84;94509.97;4171150;28;20103;-68
2022/08/18 09:44:48;;;;;;;4.28;3.50;;;;;;;30.86;32.87;94509.47;4176335;28;20053;-70
2022/08/18 09:46:52;;;;;;;7.30;3.63;;;;;;;30.83;32.19;94513.56;4173458;28;20150;-69
2022/08/18 09:49:26;;;;;;;4.35;3.38;;;;;;;30.80;32.01;94512.25;4158260;28;20132;-69
2022/08/18 09:51:35;;;;;;;5.43;3.80;;;;;;;30.95;31.73;94505.84;4169656;28;20053;-72
2022/08/18 09:53:53;;;;;;;5.13;3.60;;;;;;;31.10;31.71;94499.41;4176106;28;20434;-69
2022/08/18 09:55:57;;;;;;;5.47;3.45;;;;;;;31.17;31.55;94497.16;4175403;28;20406;-69
2022/08/18 09:58:40;;;;;;;6.43;3.70;;;;;;;31.21;32.30;94505.47;4163144;28;20107;-70
2022/08/18 10:01:23;;;;;;;8.52;4.10;;;;;;;31.28;32.18;94497.81;4175284;28;20049;-69
2022/08/18 10:03:25;;;;;;;7.53;3.60;;;;;;;31.11;31.89;94487.50;4162849;28;20137;-70
2022/08/18 10:05:33;;;;;;;8.27;3.90;;;;;;;31.04;32.46;94489.78;4163856;28;20069;-81
2022/08/18 10:07:38;;;;;;;4.50;3.67;;;;;;;31.04;32.26;94481.66;4143753;28;20494;-69
2022/08/18 10:10:19;;;;;;;4.68;3.60;;;;;;;31.06;32.61;94484.84;4153573;28;20114;-67
2022/08/18 10:13:00;;;;;;;10.60;5.15;;;;;;;31.36;31.61;94483.59;4127585;28;20049;-69
2022/08/18 10:15:33;;;;;;;6.18;3.60;;;;;;;31.49;31.43;94486.66;4166434;28;20087;-68
2022/08/18 10:17:55;;;;;;;5.70;4.18;;;;;;;31.25;31.53;94481.34;4145421;28;20291;-69
2022/08/18 10:20:15;;;;;;;10.80;3.33;;;;;;;31.25;30.82;94484.03;4157157;28;20055;-70
2022/08/18 10:22:46;;;;;;;6.47;3.55;;;;;;;30.92;30.89;94478.59;4161795;28;20730;-69